createdAt,value
2023-01-19T00:00:52.655Z,83.06
2023-01-19T00:03:21.998Z,82.89
2023-01-19T00:05:49.898Z,82.75
2023-01-19T00:08:17.949Z,83.00
2023-01-19T00:10:47.099Z,83.25
2023-01-19T00:13:15.953Z,82.82
2023-01-19T00:15:44.271Z,82.91
2023-01-19T00:18:12.286Z,83.00
2023-01-19T00:20:41.887Z,83.16
2023-01-19T00:23:09.809Z,83.32
2023-01-19T00:25:42.501Z,83.20
2023-01-19T00:28:11.161Z,83.07
2023-01-19T00:30:39.311Z,83.32
2023-01-19T00:33:07.411Z,83.55
2023-01-19T00:35:35.376Z,83.65
2023-01-19T00:38:05.016Z,83.37
2023-01-19T00:40:35.240Z,83.43
2023-01-19T00:43:04.328Z,83.54
2023-01-19T00:45:32.418Z,83.84
2023-01-19T00:48:00.432Z,83.90
2023-01-19T00:50:29.554Z,83.92
2023-01-19T00:52:58.532Z,83.85
2023-01-19T00:55:29.337Z,84.02
2023-01-19T00:57:57.464Z,83.97
2023-01-19T01:00:25.661Z,84.31
2023-01-19T01:02:54.247Z,84.01
2023-01-19T01:08:07.857Z,84.44
2023-01-19T01:10:37.199Z,84.35
2023-01-19T01:13:20.877Z,84.39
2023-01-19T01:15:51.113Z,84.93
2023-01-19T01:18:19.154Z,84.66
2023-01-19T01:20:47.095Z,84.82
2023-01-19T01:23:15.226Z,84.55
2023-01-19T01:25:44.718Z,84.65
2023-01-19T01:28:12.790Z,84.56
2023-01-19T01:30:41.329Z,84.42
2023-01-19T01:33:09.704Z,84.38
2023-01-19T01:35:37.615Z,84.91
2023-01-19T01:38:05.673Z,84.83
2023-01-19T01:40:33.597Z,84.95
2023-01-19T01:43:03.623Z,85.03
2023-01-19T01:45:33.020Z,84.92
2023-01-19T01:48:03.889Z,84.90
2023-01-19T01:50:34.143Z,84.65
2023-01-19T01:53:06.941Z,84.33
2023-01-19T01:55:38.131Z,84.54
2023-01-19T01:58:09.723Z,84.58
2023-01-19T02:00:52.313Z,84.75
2023-01-19T02:03:20.508Z,85.01
2023-01-19T02:05:48.431Z,85.11
2023-01-19T02:08:36.928Z,85.28
2023-01-19T02:11:22.321Z,84.95
2023-01-19T02:13:52.175Z,85.39
2023-01-19T02:16:20.298Z,85.34
2023-01-19T02:18:48.390Z,85.36
2023-01-19T02:21:19.123Z,85.43
2023-01-19T02:23:50.384Z,85.21
2023-01-19T02:26:20.637Z,85.27
2023-01-19T02:28:51.117Z,85.42
2023-01-19T02:31:19.500Z,85.50
2023-01-19T02:33:47.775Z,85.21
2023-01-19T02:36:17.036Z,85.22
2023-01-19T02:38:46.302Z,85.23
2023-01-19T02:41:18.408Z,85.12
2023-01-19T02:43:47.393Z,85.28
2023-01-19T02:46:15.754Z,85.41
2023-01-19T02:48:43.978Z,85.86
2023-01-19T02:51:14.225Z,85.43
2023-01-19T02:53:51.264Z,85.68
2023-01-19T02:56:37.305Z,86.18
2023-01-19T02:59:07.565Z,85.74
2023-01-19T03:01:41.512Z,85.48
2023-01-19T03:04:13.623Z,85.46
2023-01-19T03:06:46.088Z,85.73
2023-01-19T03:09:17.289Z,85.78
2023-01-19T03:11:51.662Z,85.73
2023-01-19T03:14:24.794Z,85.75
2023-01-19T03:16:56.165Z,85.76
2023-01-19T03:19:27.343Z,85.88
2023-01-19T03:21:59.365Z,85.90
2023-01-19T03:24:30.952Z,85.98
2023-01-19T03:27:02.987Z,85.78
2023-01-19T03:29:34.921Z,85.80
2023-01-19T03:32:04.379Z,85.74
2023-01-19T03:34:32.690Z,85.49
2023-01-19T03:37:04.109Z,85.51
2023-01-19T03:39:32.607Z,85.79
2023-01-19T03:42:04.375Z,85.89
2023-01-19T03:44:33.588Z,85.98
2023-01-19T03:47:02.174Z,85.63
2023-01-19T03:49:31.789Z,86.04
2023-01-19T03:52:00.338Z,85.81
2023-01-19T03:54:28.355Z,85.49
2023-01-19T03:56:56.299Z,85.55
2023-01-19T03:59:25.841Z,85.57
2023-01-19T04:01:53.801Z,85.70
2023-01-19T04:04:22.248Z,85.54
2023-01-19T04:06:50.091Z,85.37
2023-01-19T04:09:19.362Z,85.53
2023-01-19T04:11:48.265Z,85.32
2023-01-19T04:14:16.226Z,85.60
2023-01-19T04:16:45.666Z,85.31
2023-01-19T04:19:13.837Z,85.80
2023-01-19T04:21:41.828Z,85.71
2023-01-19T04:24:10.941Z,85.67
2023-01-19T04:26:38.969Z,85.60
2023-01-19T04:29:06.836Z,85.52
2023-01-19T04:31:35.842Z,85.53
2023-01-19T04:34:05.373Z,85.38
2023-01-19T04:36:33.234Z,85.54
2023-01-19T04:39:01.345Z,85.50
2023-01-19T04:41:31.102Z,85.77
2023-01-19T04:43:59.128Z,85.76
2023-01-19T04:49:27.081Z,86.10
2023-01-19T04:51:55.475Z,85.98
2023-01-19T04:54:24.293Z,85.86
2023-01-19T04:56:52.493Z,86.00
2023-01-19T04:59:21.712Z,85.96
2023-01-19T05:01:50.050Z,85.80
2023-01-19T05:04:18.308Z,85.91
2023-01-19T05:06:47.856Z,85.96
2023-01-19T05:09:16.024Z,85.93
2023-01-19T05:11:44.178Z,86.13
2023-01-19T05:14:12.368Z,85.85
2023-01-19T05:16:40.729Z,85.96
2023-01-19T05:19:09.261Z,85.96
2023-01-19T05:21:37.520Z,85.98
2023-01-19T05:24:07.670Z,86.30
2023-01-19T05:26:35.701Z,85.99
2023-01-19T05:29:03.659Z,85.94
2023-01-19T05:31:32.211Z,86.08
2023-01-19T05:34:00.578Z,85.90
2023-01-19T05:36:28.591Z,85.81
2023-01-19T05:38:56.772Z,86.12
2023-01-19T05:41:26.316Z,86.05
2023-01-19T05:43:54.970Z,85.91
2023-01-19T05:46:23.120Z,86.20
2023-01-19T05:48:51.360Z,85.77
2023-01-19T05:51:19.625Z,86.34
2023-01-19T05:53:47.519Z,86.02
2023-01-19T05:56:15.892Z,86.04
2023-01-19T05:58:45.239Z,86.26
2023-01-19T06:01:15.485Z,86.07
2023-01-19T06:03:43.538Z,86.56
2023-01-19T06:06:11.827Z,86.11
2023-01-19T06:08:40.057Z,86.18
2023-01-19T06:11:08.865Z,86.16
2023-01-19T06:13:36.870Z,86.17
2023-01-19T06:16:06.852Z,86.67
2023-01-19T06:18:35.090Z,86.07
2023-01-19T06:21:04.759Z,86.09
2023-01-19T06:23:33.686Z,86.37
2023-01-19T06:26:01.853Z,86.50
2023-01-19T06:28:30.095Z,86.25
2023-01-19T06:30:58.372Z,86.05
2023-01-19T06:33:29.117Z,86.27
2023-01-19T06:35:57.654Z,86.13
2023-01-19T06:38:25.790Z,86.31
2023-01-19T06:40:54.987Z,86.24
2023-01-19T06:43:23.493Z,86.46
2023-01-19T06:45:51.616Z,86.46
2023-01-19T06:48:19.734Z,86.59
2023-01-19T06:50:49.770Z,86.13
2023-01-19T06:53:20.011Z,86.03
2023-01-19T06:55:47.892Z,86.03
2023-01-19T06:58:15.842Z,86.05
2023-01-19T07:00:44.300Z,85.95
2023-01-19T07:03:19.389Z,85.79
2023-01-19T07:05:50.044Z,86.16
2023-01-19T07:08:18.156Z,86.00
2023-01-19T07:11:24.659Z,86.17
2023-01-19T07:13:34.556Z,86.05
2023-01-19T07:16:06.658Z,86.10
2023-01-19T07:18:35.334Z,85.88
2023-01-19T07:21:05.105Z,85.98
2023-01-19T07:23:33.144Z,85.95
2023-01-19T07:26:02.359Z,86.03
2023-01-19T07:28:31.183Z,86.03
2023-01-19T07:30:59.747Z,85.99
2023-01-19T07:33:28.367Z,85.87
2023-01-19T07:35:56.551Z,85.72
2023-01-19T07:38:26.093Z,85.82
2023-01-19T07:41:01.088Z,85.97
2023-01-19T07:43:29.245Z,86.11
2023-01-19T07:45:57.771Z,85.81
2023-01-19T07:48:25.773Z,85.73
2023-01-19T07:50:53.873Z,85.85
2023-01-19T07:53:22.582Z,85.81
2023-01-19T07:55:56.994Z,86.09
2023-01-19T07:58:25.031Z,86.17
2023-01-19T08:00:53.354Z,85.91
2023-01-19T08:03:21.438Z,86.06
2023-01-19T08:05:51.218Z,86.00
2023-01-19T08:08:19.454Z,85.84
2023-01-19T08:10:50.648Z,85.60
2023-01-19T08:13:20.601Z,86.01
2023-01-19T08:15:50.496Z,85.67
2023-01-19T08:18:18.978Z,85.54
2023-01-19T08:23:55.995Z,85.58
2023-01-19T08:26:28.512Z,85.47
2023-01-19T08:28:58.987Z,85.40
2023-01-19T08:31:27.487Z,85.76
2023-01-19T08:33:56.131Z,85.66
2023-01-19T08:36:25.217Z,85.59
2023-01-19T08:38:53.410Z,85.34
2023-01-19T08:41:22.610Z,85.45
2023-01-19T08:43:50.853Z,85.61
2023-01-19T08:46:22.094Z,85.10
2023-01-19T08:48:50.750Z,84.98
2023-01-19T08:51:18.929Z,85.10
2023-01-19T08:53:46.989Z,85.26
2023-01-19T08:56:15.298Z,85.27
2023-01-19T08:58:43.843Z,85.39
2023-01-19T09:01:17.110Z,85.04
2023-01-19T09:03:46.974Z,85.21
2023-01-19T09:06:17.445Z,85.09
2023-01-19T09:08:45.558Z,85.03
2023-01-19T09:11:14.840Z,85.40
2023-01-19T09:13:42.976Z,85.20
2023-01-19T09:16:12.786Z,85.08
2023-01-19T09:18:41.377Z,85.30
2023-01-19T09:21:10.744Z,85.59
2023-01-19T09:23:38.806Z,85.40
2023-01-19T09:26:07.847Z,85.67
2023-01-19T09:28:35.982Z,85.30
2023-01-19T09:31:06.116Z,85.42
2023-01-19T09:33:34.696Z,85.39
2023-01-19T09:36:03.202Z,85.41
2023-01-19T09:38:33.154Z,85.09
2023-01-19T09:41:01.931Z,85.18
2023-01-19T09:43:38.931Z,85.34
2023-01-19T09:46:11.016Z,84.74
2023-01-19T09:48:46.005Z,84.92
2023-01-19T09:51:17.129Z,85.08
2023-01-19T09:53:52.648Z,84.88
2023-01-19T09:56:21.921Z,85.04
2023-01-19T09:58:51.284Z,84.88
2023-01-19T10:01:28.137Z,84.80
2023-01-19T10:04:06.865Z,84.37
2023-01-19T10:06:35.042Z,84.61
2023-01-19T10:09:09.814Z,84.57
2023-01-19T10:11:52.084Z,84.64
2023-01-19T10:14:23.121Z,84.39
2023-01-19T10:16:54.769Z,84.44
2023-01-19T10:19:25.032Z,84.44
2023-01-19T10:21:53.277Z,84.41
2023-01-19T10:24:25.910Z,84.54
2023-01-19T10:26:54.937Z,84.83
2023-01-19T10:29:24.042Z,84.49
2023-01-19T10:31:53.322Z,84.54
2023-01-19T10:34:23.623Z,84.53
2023-01-19T10:36:55.363Z,84.80
2023-01-19T10:39:25.015Z,84.70
2023-01-19T10:41:54.564Z,84.51
2023-01-19T10:44:26.369Z,84.03
2023-01-19T10:46:55.517Z,84.08
2023-01-19T10:49:28.102Z,84.28
2023-01-19T10:51:56.989Z,84.50
2023-01-19T10:54:27.968Z,84.69
2023-01-19T10:56:58.013Z,84.17
2023-01-19T10:59:33.394Z,84.33
2023-01-19T11:02:14.174Z,84.30
2023-01-19T11:04:45.081Z,84.22
2023-01-19T11:07:17.933Z,84.29
2023-01-19T11:09:47.972Z,84.38
2023-01-19T11:12:23.302Z,84.18
2023-01-19T11:14:51.785Z,84.15
2023-01-19T11:17:21.270Z,84.22
2023-01-19T11:19:57.547Z,84.21
2023-01-19T11:22:28.375Z,84.31
2023-01-19T11:25:02.287Z,84.71
2023-01-19T11:27:32.466Z,84.27
2023-01-19T11:30:08.084Z,83.83
2023-01-19T11:32:37.269Z,83.80
2023-01-19T11:35:20.176Z,84.25
2023-01-19T11:37:48.387Z,84.05
2023-01-19T11:40:17.657Z,84.32
2023-01-19T11:42:47.245Z,84.54
2023-01-19T11:45:16.622Z,84.67
2023-01-19T11:47:46.046Z,84.54
2023-01-19T11:50:16.903Z,84.65
2023-01-19T11:55:41.583Z,84.19
2023-01-19T11:58:15.635Z,84.44
2023-01-19T12:00:45.074Z,84.35
2023-01-19T12:03:17.325Z,84.38
2023-01-19T12:05:48.389Z,84.49
2023-01-19T12:08:18.172Z,84.45
2023-01-19T12:10:48.568Z,84.45
2023-01-19T12:13:22.014Z,84.59
2023-01-19T12:15:51.744Z,84.55
2023-01-19T12:18:21.285Z,84.42
2023-01-19T12:20:51.839Z,84.43
2023-01-19T12:23:25.821Z,84.20
2023-01-19T12:26:01.224Z,84.15
2023-01-19T12:28:32.803Z,83.99
2023-01-19T12:31:01.881Z,84.26
2023-01-19T12:33:37.999Z,84.53
2023-01-19T12:36:10.061Z,84.46
2023-01-19T12:38:42.388Z,84.14
2023-01-19T12:41:24.592Z,84.20
2023-01-19T12:44:07.353Z,84.39
2023-01-19T12:46:38.554Z,84.55
2023-01-19T12:49:07.465Z,84.44
2023-01-19T12:51:35.996Z,84.62
2023-01-19T12:54:06.345Z,84.65
2023-01-19T12:56:35.777Z,84.24
2023-01-19T12:59:04.548Z,84.26
2023-01-19T13:01:33.001Z,84.48
2023-01-19T13:04:07.005Z,84.52
2023-01-19T13:06:54.302Z,84.61
2023-01-19T13:09:30.185Z,84.47
2023-01-19T13:12:21.519Z,84.60
2023-01-19T13:14:51.127Z,84.82
2023-01-19T13:17:31.222Z,84.35
2023-01-19T13:20:06.069Z,84.26
2023-01-19T13:22:57.984Z,84.38
2023-01-19T13:25:29.298Z,84.52
2023-01-19T13:27:57.680Z,84.29
2023-01-19T13:30:28.736Z,84.51
2023-01-19T13:32:58.284Z,84.51
2023-01-19T13:35:28.771Z,84.43
2023-01-19T13:37:59.008Z,84.33
2023-01-19T13:40:39.199Z,84.35
2023-01-19T13:43:14.516Z,84.37
2023-01-19T13:45:43.240Z,84.46
2023-01-19T13:48:17.072Z,84.33
2023-01-19T13:50:57.751Z,84.08
2023-01-19T13:53:25.742Z,84.16
2023-01-19T13:56:10.484Z,84.29
2023-01-19T13:58:38.498Z,84.37
2023-01-19T14:01:07.855Z,84.21
2023-01-19T14:03:36.180Z,84.42
2023-01-19T14:06:05.822Z,84.29
2023-01-19T14:08:33.993Z,84.72
2023-01-19T14:11:03.226Z,84.88
2023-01-19T14:13:32.715Z,84.28
2023-01-19T14:16:02.030Z,84.32
2023-01-19T14:18:31.327Z,84.56
2023-01-19T14:21:02.044Z,84.33
2023-01-19T14:23:46.002Z,84.37
2023-01-19T14:26:32.788Z,84.76
2023-01-19T14:29:08.275Z,84.68
2023-01-19T14:31:43.980Z,84.80
2023-01-19T14:34:27.177Z,85.01
2023-01-19T14:36:55.328Z,84.90
2023-01-19T14:39:25.836Z,84.88
2023-01-19T14:41:54.705Z,84.72
2023-01-19T14:44:26.527Z,85.42
2023-01-19T14:46:54.824Z,85.41
2023-01-19T14:49:27.317Z,84.59
2023-01-19T14:51:56.148Z,85.11
2023-01-19T14:54:31.073Z,85.69
2023-01-19T14:56:59.168Z,85.83
2023-01-19T14:59:27.216Z,85.90
2023-01-19T15:01:55.283Z,86.05
2023-01-19T15:04:23.384Z,85.96
2023-01-19T15:06:53.820Z,85.90
2023-01-19T15:09:21.859Z,85.75
2023-01-19T15:11:51.620Z,85.70
2023-01-19T15:14:21.125Z,85.73
2023-01-19T15:16:49.246Z,85.68
2023-01-19T15:19:18.419Z,85.59
2023-01-19T15:22:13.273Z,85.71
2023-01-19T15:24:44.596Z,85.49
2023-01-19T15:27:14.373Z,85.71
2023-01-19T15:29:42.387Z,85.47
2023-01-19T15:32:12.868Z,85.34
2023-01-19T15:34:41.006Z,85.11
2023-01-19T15:37:09.162Z,85.56
2023-01-19T15:39:37.123Z,85.68
2023-01-19T15:42:05.120Z,85.83
2023-01-19T15:44:34.501Z,85.80
2023-01-19T15:47:02.629Z,86.13
2023-01-19T15:49:31.052Z,85.67
2023-01-19T15:51:59.149Z,85.81
2023-01-19T15:54:27.171Z,85.84
2023-01-19T15:56:55.266Z,85.77
2023-01-19T15:59:23.838Z,85.83
2023-01-19T16:01:53.396Z,85.80
2023-01-19T16:04:21.429Z,85.64
2023-01-19T16:06:50.164Z,86.07
2023-01-19T16:09:20.287Z,86.27
2023-01-19T16:11:48.259Z,86.18
2023-01-19T16:14:17.562Z,86.05
2023-01-19T16:16:46.328Z,85.73
2023-01-19T16:19:16.997Z,85.72
2023-01-19T16:21:45.124Z,85.50
2023-01-19T16:24:13.209Z,85.69
2023-01-19T16:26:41.234Z,85.93
2023-01-19T16:29:10.958Z,85.88
2023-01-19T16:31:39.844Z,85.67
2023-01-19T16:34:08.166Z,85.68
2023-01-19T16:36:38.479Z,85.44
2023-01-19T16:39:07.566Z,85.85
2023-01-19T16:41:36.183Z,85.85
2023-01-19T16:44:04.592Z,85.69
2023-01-19T16:46:34.146Z,85.68
2023-01-19T16:49:03.338Z,85.98
2023-01-19T16:51:31.728Z,85.97
2023-01-19T16:54:01.220Z,85.64
2023-01-19T16:56:29.173Z,85.70
2023-01-19T16:58:57.983Z,85.66
2023-01-19T17:01:27.506Z,85.94
2023-01-19T17:03:56.694Z,85.76
2023-01-19T17:06:25.144Z,85.78
2023-01-19T17:08:53.953Z,85.72
2023-01-19T17:11:25.638Z,85.89
2023-01-19T17:13:55.344Z,85.82
2023-01-19T17:16:23.782Z,85.85
2023-01-19T17:18:51.750Z,85.94
2023-01-19T17:21:20.153Z,86.40
2023-01-19T17:23:51.145Z,86.50
2023-01-19T17:26:19.876Z,86.25
2023-01-19T17:28:49.540Z,86.61
2023-01-19T17:31:18.670Z,86.20
2023-01-19T17:33:47.791Z,86.38
2023-01-19T17:36:16.947Z,86.48
2023-01-19T17:38:44.936Z,86.06
2023-01-19T17:41:13.832Z,85.93
2023-01-19T17:43:42.083Z,86.34
2023-01-19T17:46:11.701Z,86.20
2023-01-19T17:48:40.456Z,86.29
2023-01-19T17:51:09.973Z,86.51
2023-01-19T17:53:38.586Z,86.20
2023-01-19T17:56:07.272Z,86.51
2023-01-19T17:58:35.373Z,86.30
2023-01-19T18:01:09.192Z,86.42
2023-01-19T18:03:38.761Z,86.25
2023-01-19T18:06:07.171Z,86.08
2023-01-19T18:08:36.561Z,85.88
2023-01-19T18:11:04.727Z,85.96
2023-01-19T18:13:32.973Z,85.99
2023-01-19T18:16:01.452Z,86.28
2023-01-19T18:18:29.962Z,85.89
2023-01-19T18:21:01.324Z,86.22
2023-01-19T18:23:29.664Z,86.41
2023-01-19T18:26:00.739Z,86.18
2023-01-19T18:28:29.257Z,86.38
2023-01-19T18:30:57.460Z,86.62
2023-01-19T18:33:25.772Z,86.62
2023-01-19T18:35:53.708Z,86.89
2023-01-19T18:38:23.036Z,86.81
2023-01-19T18:40:51.155Z,86.46
2023-01-19T18:43:19.186Z,86.39
2023-01-19T18:45:48.426Z,86.31
2023-01-19T18:48:17.992Z,86.47
2023-01-19T18:50:46.098Z,86.22
2023-01-19T18:55:56.697Z,86.50
2023-01-19T18:58:28.679Z,86.47
2023-01-19T19:00:57.665Z,86.50
2023-01-19T19:03:28.576Z,86.31
2023-01-19T19:05:56.970Z,86.16
2023-01-19T19:08:25.384Z,85.92
2023-01-19T19:10:53.261Z,86.22
2023-01-19T19:13:23.796Z,86.57
2023-01-19T19:15:52.770Z,86.11
2023-01-19T19:18:20.922Z,86.25
2023-01-19T19:20:48.907Z,86.07
2023-01-19T19:23:16.889Z,86.24
2023-01-19T19:25:44.929Z,86.15
2023-01-19T19:28:12.976Z,86.14
2023-01-19T19:30:42.486Z,86.04
2023-01-19T19:33:10.438Z,86.13
2023-01-19T19:35:38.390Z,86.01
2023-01-19T19:38:06.463Z,86.07
2023-01-19T19:40:34.512Z,86.22
2023-01-19T19:43:03.039Z,86.35
2023-01-19T19:45:31.100Z,86.23
2023-01-19T19:48:00.646Z,86.15
2023-01-19T19:50:28.661Z,86.39
2023-01-19T19:52:58.864Z,86.35
2023-01-19T19:55:26.966Z,86.48
2023-01-19T19:57:55.342Z,86.01
2023-01-19T20:00:23.411Z,86.05
2023-01-19T20:02:52.022Z,85.94
2023-01-19T20:05:21.347Z,86.69
2023-01-19T20:07:49.350Z,86.48
2023-01-19T20:10:17.774Z,86.21
2023-01-19T20:12:45.963Z,85.88
2023-01-19T20:15:13.988Z,86.20
2023-01-19T20:17:42.704Z,86.16
2023-01-19T20:20:11.936Z,86.36
2023-01-19T20:22:41.904Z,86.01
2023-01-19T20:25:11.275Z,86.69
2023-01-19T20:27:39.393Z,86.72
2023-01-19T20:30:08.229Z,86.66
2023-01-19T20:32:36.385Z,86.70
2023-01-19T20:35:05.332Z,86.26
2023-01-19T20:37:33.611Z,86.29
2023-01-19T20:40:03.488Z,86.37
2023-01-19T20:42:31.582Z,86.08
2023-01-19T20:44:59.545Z,86.39
2023-01-19T20:47:27.517Z,86.58
2023-01-19T20:49:55.452Z,86.23
2023-01-19T20:52:23.730Z,86.68
2023-01-19T20:54:52.294Z,86.70
2023-01-19T20:57:22.646Z,86.94
2023-01-19T20:59:50.709Z,86.82
2023-01-19T21:02:18.843Z,86.44
2023-01-19T21:04:46.819Z,87.10
2023-01-19T21:07:14.885Z,86.87
2023-01-19T21:09:43.083Z,86.33
2023-01-19T21:12:11.871Z,86.47
2023-01-19T21:14:42.557Z,86.63
2023-01-19T21:17:10.569Z,86.74
2023-01-19T21:19:38.585Z,86.39
2023-01-19T21:22:06.735Z,86.23
2023-01-19T21:24:34.690Z,86.08
2023-01-19T21:27:02.669Z,86.52
2023-01-19T21:29:30.769Z,87.02
2023-01-19T21:32:01.280Z,86.44
2023-01-19T21:34:29.245Z,86.35
2023-01-19T21:36:57.294Z,86.38
2023-01-19T21:39:25.268Z,86.42
2023-01-19T21:41:53.489Z,86.33
2023-01-19T21:44:21.697Z,85.96
2023-01-19T21:46:53.835Z,86.11
2023-01-19T21:49:23.309Z,86.12
2023-01-19T21:51:51.578Z,85.92
2023-01-19T21:54:20.171Z,86.15
2023-01-19T21:56:48.058Z,86.22
2023-01-19T21:59:19.680Z,86.36
2023-01-19T22:01:48.629Z,86.16
2023-01-19T22:04:16.695Z,86.07
2023-01-19T22:06:46.188Z,85.86
2023-01-19T22:09:14.138Z,85.97
2023-01-19T22:11:42.373Z,86.07
2023-01-19T22:14:11.546Z,86.15
2023-01-19T22:16:42.303Z,86.07
2023-01-19T22:19:16.093Z,86.21
2023-01-19T22:24:33.924Z,86.08
2023-01-19T22:27:01.991Z,86.22
2023-01-19T22:29:30.061Z,86.35
2023-01-19T22:31:58.086Z,86.05
2023-01-19T22:34:26.244Z,86.10
2023-01-19T22:36:54.227Z,86.25
2023-01-19T22:39:22.259Z,86.02
2023-01-19T22:41:51.591Z,85.84
2023-01-19T22:44:21.192Z,85.75
2023-01-19T22:46:49.885Z,85.77
2023-01-19T22:49:18.438Z,85.97
2023-01-19T22:51:46.668Z,85.44
2023-01-19T22:54:14.782Z,85.54
2023-01-19T22:56:43.332Z,85.45
2023-01-19T22:59:12.649Z,85.60
2023-01-19T23:01:41.711Z,85.49
2023-01-19T23:04:12.001Z,85.84
2023-01-19T23:06:40.064Z,85.62
2023-01-19T23:09:08.927Z,85.33
2023-01-19T23:11:37.526Z,85.56
2023-01-19T23:14:07.051Z,85.57
2023-01-19T23:16:36.599Z,85.44
2023-01-19T23:19:04.984Z,85.27
2023-01-19T23:21:33.618Z,85.22
2023-01-19T23:24:02.280Z,85.30
2023-01-19T23:26:31.557Z,85.36
2023-01-19T23:29:00.842Z,85.15
2023-01-19T23:31:29.753Z,85.06
2023-01-19T23:34:00.118Z,85.28
2023-01-19T23:36:29.178Z,85.41
2023-01-19T23:38:57.837Z,85.25
2023-01-19T23:41:26.242Z,85.12
2023-01-19T23:43:54.256Z,85.21
2023-01-19T23:46:22.535Z,85.17
2023-01-19T23:48:50.884Z,85.03
2023-01-19T23:51:21.203Z,85.26
2023-01-19T23:53:49.501Z,85.20
2023-01-19T23:56:18.619Z,85.02
2023-01-19T23:58:47.327Z,85.32
